sensor_id;sensor_type;location;lat;lon;timestamp;pressure;altitude;pressure_sealevel;temperature;humidity
76108;BME280;64834;52.516;10.528;2024-03-17T00:00:30;101667.53;;;1.72;100.00
76108;BME280;64834;52.516;10.528;2024-03-17T00:02:55;101663.53;;;1.67;100.00
76108;BME280;64834;52.516;10.528;2024-03-17T00:05:20;101661.88;;;1.68;100.00
76108;BME280;64834;52.516;10.528;2024-03-17T00:07:46;101659.09;;;1.57;100.00
76108;BME280;64834;52.516;10.528;2024-03-17T00:10:11;101656.50;;;1.57;100.00
76108;BME280;64834;52.516;10.528;2024-03-17T00:12:37;101658.91;;;1.56;100.00
76108;BME280;64834;52.516;10.528;2024-03-17T00:15:04;101659.44;;;1.45;100.00
76108;BME280;64834;52.516;10.528;2024-03-17T00:17:30;101667.00;;;1.43;100.00
76108;BME280;64834;52.516;10.528;2024-03-17T00:19:55;101664.09;;;1.40;100.00
76108;BME280;64834;52.516;10.528;2024-03-17T00:22:20;101667.91;;;1.44;100.00
76108;BME280;64834;52.516;10.528;2024-03-17T00:24:46;101658.94;;;1.40;100.00
76108;BME280;64834;52.516;10.528;2024-03-17T00:27:11;101657.94;;;1.31;100.00
76108;BME280;64834;52.516;10.528;2024-03-17T00:29:37;101661.72;;;1.26;100.00
76108;BME280;64834;52.516;10.528;2024-03-17T00:32:03;101664.84;;;1.23;100.00
76108;BME280;64834;52.516;10.528;2024-03-17T00:34:29;101662.38;;;1.16;100.00
76108;BME280;64834;52.516;10.528;2024-03-17T00:36:54;101676.41;;;1.11;100.00
76108;BME280;64834;52.516;10.528;2024-03-17T00:39:19;101663.53;;;1.11;100.00
76108;BME280;64834;52.516;10.528;2024-03-17T00:41:45;101665.25;;;1.19;100.00
76108;BME280;64834;52.516;10.528;2024-03-17T00:44:10;101671.03;;;1.17;100.00
76108;BME280;64834;52.516;10.528;2024-03-17T00:46:35;101660.28;;;1.05;100.00
76108;BME280;64834;52.516;10.528;2024-03-17T00:49:01;101664.22;;;1.01;100.00
76108;BME280;64834;52.516;10.528;2024-03-17T00:51:26;101672.09;;;1.03;100.00
76108;BME280;64834;52.516;10.528;2024-03-17T00:53:52;101668.53;;;1.10;100.00
76108;BME280;64834;52.516;10.528;2024-03-17T00:56:17;101671.25;;;1.11;100.00
76108;BME280;64834;52.516;10.528;2024-03-17T00:58:43;101664.38;;;1.03;100.00
76108;BME280;64834;52.516;10.528;2024-03-17T01:01:10;101669.03;;;0.98;100.00
76108;BME280;64834;52.516;10.528;2024-03-17T01:03:36;101671.75;;;1.00;100.00
76108;BME280;64834;52.516;10.528;2024-03-17T01:06:04;101675.44;;;1.02;100.00
76108;BME280;64834;52.516;10.528;2024-03-17T01:08:30;101664.22;;;1.01;100.00
76108;BME280;64834;52.516;10.528;2024-03-17T01:10:55;101669.53;;;1.03;100.00
76108;BME280;64834;52.516;10.528;2024-03-17T01:13:21;101667.88;;;1.03;100.00
76108;BME280;64834;52.516;10.528;2024-03-17T01:15:51;101673.53;;;1.08;100.00
76108;BME280;64834;52.516;10.528;2024-03-17T01:18:17;101672.09;;;1.03;100.00
76108;BME280;64834;52.516;10.528;2024-03-17T01:20:44;101664.03;;;1.00;100.00
76108;BME280;64834;52.516;10.528;2024-03-17T01:23:09;101663.34;;;0.94;100.00
76108;BME280;64834;52.516;10.528;2024-03-17T01:25:34;101656.72;;;0.96;100.00
76108;BME280;64834;52.516;10.528;2024-03-17T01:28:04;101668.88;;;0.97;100.00
76108;BME280;64834;52.516;10.528;2024-03-17T01:30:30;101662.97;;;0.98;100.00
76108;BME280;64834;52.516;10.528;2024-03-17T01:32:55;101668.88;;;0.97;100.00
76108;BME280;64834;52.516;10.528;2024-03-17T01:35:21;101671.16;;;0.87;100.00
76108;BME280;64834;52.516;10.528;2024-03-17T01:37:48;101658.97;;;0.77;100.00
76108;BME280;64834;52.516;10.528;2024-03-17T01:40:14;101659.03;;;0.70;100.00
76108;BME280;64834;52.516;10.528;2024-03-17T01:42:40;101659.59;;;0.67;100.00
76108;BME280;64834;52.516;10.528;2024-03-17T01:45:23;101655.97;;;0.65;100.00
76108;BME280;64834;52.516;10.528;2024-03-17T01:47:50;101666.66;;;0.61;100.00
76108;BME280;64834;52.516;10.528;2024-03-17T01:50:16;101665.75;;;0.61;100.00
76108;BME280;64834;52.516;10.528;2024-03-17T01:52:45;101666.66;;;0.61;100.00
76108;BME280;64834;52.516;10.528;2024-03-17T01:55:11;101667.81;;;0.56;100.00
76108;BME280;64834;52.516;10.528;2024-03-17T01:57:37;101669.66;;;0.57;100.00
76108;BME280;64834;52.516;10.528;2024-03-17T02:00:02;101667.13;;;0.50;100.00
76108;BME280;64834;52.516;10.528;2024-03-17T02:02:30;101662.41;;;0.46;100.00
76108;BME280;64834;52.516;10.528;2024-03-17T02:04:56;101663.19;;;0.38;100.00
76108;BME280;64834;52.516;10.528;2024-03-17T02:07:22;101657.41;;;0.32;100.00
76108;BME280;64834;52.516;10.528;2024-03-17T02:09:47;101658.31;;;0.32;100.00
76108;BME280;64834;52.516;10.528;2024-03-17T02:12:12;101663.09;;;0.29;100.00
76108;BME280;64834;52.516;10.528;2024-03-17T02:14:38;101671.56;;;0.28;100.00
76108;BME280;64834;52.516;10.528;2024-03-17T02:17:04;101660.97;;;0.41;100.00
76108;BME280;64834;52.516;10.528;2024-03-17T02:19:29;101659.16;;;0.40;100.00
76108;BME280;64834;52.516;10.528;2024-03-17T02:21:54;101667.09;;;0.34;100.00
76108;BME280;64834;52.516;10.528;2024-03-17T02:24:20;101660.53;;;0.29;100.00
76108;BME280;64834;52.516;10.528;2024-03-17T02:26:45;101668.25;;;0.29;100.00
76108;BME280;64834;52.516;10.528;2024-03-17T02:29:11;101667.91;;;0.26;100.00
76108;BME280;64834;52.516;10.528;2024-03-17T02:31:39;101673.06;;;0.26;100.00
76108;BME280;64834;52.516;10.528;2024-03-17T02:34:05;101670.13;;;0.23;100.00
76108;BME280;64834;52.516;10.528;2024-03-17T02:36:30;101664.25;;;0.24;100.00
76108;BME280;64834;52.516;10.528;2024-03-17T02:38:55;101673.28;;;0.20;100.00
76108;BME280;64834;52.516;10.528;2024-03-17T02:41:43;101673.09;;;0.19;100.00
76108;BME280;64834;52.516;10.528;2024-03-17T02:44:09;101671.13;;;0.16;100.00
76108;BME280;64834;52.516;10.528;2024-03-17T02:46:36;101667.53;;;0.07;100.00
76108;BME280;64834;52.516;10.528;2024-03-17T02:49:01;101663.16;;;-0.01;100.00
76108;BME280;64834;52.516;10.528;2024-03-17T02:51:27;101673.84;;;-0.05;100.00
76108;BME280;64834;52.516;10.528;2024-03-17T02:53:52;101669.97;;;-0.02;100.00
76108;BME280;64834;52.516;10.528;2024-03-17T02:56:18;101671.22;;;0.02;100.00
76108;BME280;64834;52.516;10.528;2024-03-17T02:58:45;101669.72;;;0.04;100.00
76108;BME280;64834;52.516;10.528;2024-03-17T03:01:14;101673.38;;;0.06;100.00
76108;BME280;64834;52.516;10.528;2024-03-17T03:03:42;101676.47;;;0.11;100.00
76108;BME280;64834;52.516;10.528;2024-03-17T03:06:07;101673.75;;;0.09;100.00
76108;BME280;64834;52.516;10.528;2024-03-17T03:08:39;101669.41;;;0.01;100.00
76108;BME280;64834;52.516;10.528;2024-03-17T03:11:10;101669.63;;;-0.05;100.00
76108;BME280;64834;52.516;10.528;2024-03-17T03:13:39;101667.81;;;-0.13;100.00
76108;BME280;64834;52.516;10.528;2024-03-17T03:16:11;101667.31;;;-0.17;100.00
76108;BME280;64834;52.516;10.528;2024-03-17T03:18:37;101664.75;;;-0.17;100.00
76108;BME280;64834;52.516;10.528;2024-03-17T03:21:03;101669.00;;;-0.18;100.00
76108;BME280;64834;52.516;10.528;2024-03-17T03:23:30;101666.91;;;-0.13;100.00
76108;BME280;64834;52.516;10.528;2024-03-17T03:25:56;101670.41;;;-0.13;100.00
76108;BME280;64834;52.516;10.528;2024-03-17T03:28:24;101666.22;;;-0.19;100.00
76108;BME280;64834;52.516;10.528;2024-03-17T03:30:50;101666.47;;;-0.25;100.00
76108;BME280;64834;52.516;10.528;2024-03-17T03:33:16;101664.28;;;-0.29;100.00
76108;BME280;64834;52.516;10.528;2024-03-17T03:35:43;101666.28;;;-0.27;100.00
76108;BME280;64834;52.516;10.528;2024-03-17T03:38:09;101660.78;;;-0.30;100.00
76108;BME280;64834;52.516;10.528;2024-03-17T03:40:34;101654.75;;;-0.30;100.00
76108;BME280;64834;52.516;10.528;2024-03-17T03:43:00;101659.69;;;-0.32;100.00
76108;BME280;64834;52.516;10.528;2024-03-17T03:45:25;101655.28;;;-0.33;100.00
76108;BME280;64834;52.516;10.528;2024-03-17T03:47:50;101656.78;;;-0.35;100.00
76108;BME280;64834;52.516;10.528;2024-03-17T03:50:20;101664.16;;;-0.38;100.00
76108;BME280;64834;52.516;10.528;2024-03-17T03:52:45;101663.75;;;-0.34;100.00
76108;BME280;64834;52.516;10.528;2024-03-17T03:55:12;101664.81;;;-0.32;100.00
76108;BME280;64834;52.516;10.528;2024-03-17T03:57:44;101659.34;;;-0.35;100.00
76108;BME280;64834;52.516;10.528;2024-03-17T04:00:16;101663.41;;;-0.37;100.00
76108;BME280;64834;52.516;10.528;2024-03-17T04:02:52;101659.56;;;-0.40;100.00
76108;BME280;64834;52.516;10.528;2024-03-17T04:05:19;101661.38;;;-0.39;100.00
76108;BME280;64834;52.516;10.528;2024-03-17T04:07:45;101663.09;;;-0.47;100.00
76108;BME280;64834;52.516;10.528;2024-03-17T04:10:12;101663.47;;;-0.51;100.00
76108;BME280;64834;52.516;10.528;2024-03-17T04:12:37;101667.38;;;-0.55;100.00
76108;BME280;64834;52.516;10.528;2024-03-17T04:15:03;101657.28;;;-0.60;100.00
76108;BME280;64834;52.516;10.528;2024-03-17T04:17:31;101661.34;;;-0.62;100.00
76108;BME280;64834;52.516;10.528;2024-03-17T04:19:56;101657.50;;;-0.66;100.00
76108;BME280;64834;52.516;10.528;2024-03-17T04:22:22;101667.44;;;-0.69;100.00
76108;BME280;64834;52.516;10.528;2024-03-17T04:24:48;101658.44;;;-0.72;100.00
76108;BME280;64834;52.516;10.528;2024-03-17T04:27:25;101658.13;;;-0.75;100.00
76108;BME280;64834;52.516;10.528;2024-03-17T04:29:52;101661.06;;;-0.79;100.00
76108;BME280;64834;52.516;10.528;2024-03-17T04:32:18;101677.03;;;-0.82;100.00
76108;BME280;64834;52.516;10.528;2024-03-17T04:34:44;101669.06;;;-0.62;100.00
76108;BME280;64834;52.516;10.528;2024-03-17T04:37:10;101673.25;;;-0.56;100.00
76108;BME280;64834;52.516;10.528;2024-03-17T04:39:42;101668.84;;;-0.57;100.00
76108;BME280;64834;52.516;10.528;2024-03-17T04:42:11;101677.44;;;-0.49;100.00
76108;BME280;64834;52.516;10.528;2024-03-17T04:44:37;101679.06;;;-0.42;100.00
76108;BME280;64834;52.516;10.528;2024-03-17T04:47:03;101682.72;;;-0.40;100.00
76108;BME280;64834;52.516;10.528;2024-03-17T04:49:39;101670.75;;;-0.40;100.00
76108;BME280;64834;52.516;10.528;2024-03-17T04:52:05;101675.16;;;-0.39;100.00
76108;BME280;64834;52.516;10.528;2024-03-17T04:54:31;101675.09;;;-0.32;100.00
76108;BME280;64834;52.516;10.528;2024-03-17T04:56:57;101679.34;;;-0.32;100.00
76108;BME280;64834;52.516;10.528;2024-03-17T04:59:22;101686.16;;;-0.33;100.00
76108;BME280;64834;52.516;10.528;2024-03-17T05:01:48;101682.88;;;-0.39;100.00
76108;BME280;64834;52.516;10.528;2024-03-17T05:04:14;101687.97;;;-0.32;100.00
76108;BME280;64834;52.516;10.528;2024-03-17T05:06:39;101691.06;;;-0.27;100.00
76108;BME280;64834;52.516;10.528;2024-03-17T05:09:07;101690.16;;;-0.28;100.00
76108;BME280;64834;52.516;10.528;2024-03-17T05:11:32;101688.34;;;-0.29;100.00
76108;BME280;64834;52.516;10.528;2024-03-17T05:14:00;101693.09;;;-0.24;100.00
76108;BME280;64834;52.516;10.528;2024-03-17T05:16:26;101700.59;;;-0.19;100.00
76108;BME280;64834;52.516;10.528;2024-03-17T05:18:54;101702.22;;;-0.19;100.00
76108;BME280;64834;52.516;10.528;2024-03-17T05:21:19;101696.38;;;-0.18;100.00
76108;BME280;64834;52.516;10.528;2024-03-17T05:23:45;101697.44;;;-0.16;100.00
76108;BME280;64834;52.516;10.528;2024-03-17T05:26:10;101702.75;;;-0.15;100.00
76108;BME280;64834;52.516;10.528;2024-03-17T05:28:35;101696.53;;;-0.17;100.00
76108;BME280;64834;52.516;10.528;2024-03-17T05:31:01;101700.34;;;-0.13;100.00
76108;BME280;64834;52.516;10.528;2024-03-17T05:33:26;101706.59;;;-0.11;100.00
76108;BME280;64834;52.516;10.528;2024-03-17T05:35:53;101701.78;;;-0.08;100.00
76108;BME280;64834;52.516;10.528;2024-03-17T05:38:20;101706.19;;;0.00;100.00
76108;BME280;64834;52.516;10.528;2024-03-17T05:40:57;101708.34;;;0.04;100.00
76108;BME280;64834;52.516;10.528;2024-03-17T05:43:23;101716.41;;;0.07;100.00
76108;BME280;64834;52.516;10.528;2024-03-17T05:45:53;101711.44;;;0.09;100.00
76108;BME280;64834;52.516;10.528;2024-03-17T05:48:19;101717.28;;;0.15;100.00
76108;BME280;64834;52.516;10.528;2024-03-17T05:50:45;101723.66;;;0.18;100.00
76108;BME280;64834;52.516;10.528;2024-03-17T05:53:11;101727.72;;;0.16;100.00
76108;BME280;64834;52.516;10.528;2024-03-17T05:55:37;101734.88;;;0.19;100.00
76108;BME280;64834;52.516;10.528;2024-03-17T05:58:03;101732.66;;;0.22;100.00
76108;BME280;64834;52.516;10.528;2024-03-17T06:00:28;101731.53;;;0.27;100.00
76108;BME280;64834;52.516;10.528;2024-03-17T06:02:55;101727.22;;;0.35;100.00
76108;BME280;64834;52.516;10.528;2024-03-17T06:05:21;101725.88;;;0.45;100.00
76108;BME280;64834;52.516;10.528;2024-03-17T06:07:46;101730.03;;;0.52;100.00
76108;BME280;64834;52.516;10.528;2024-03-17T06:10:12;101736.41;;;0.56;100.00
76108;BME280;64834;52.516;10.528;2024-03-17T06:12:37;101737.56;;;0.73;100.00
76108;BME280;64834;52.516;10.528;2024-03-17T06:15:03;101747.84;;;0.73;100.00
76108;BME280;64834;52.516;10.528;2024-03-17T06:17:28;101746.09;;;0.88;100.00
76108;BME280;64834;52.516;10.528;2024-03-17T06:19:54;101745.88;;;0.87;100.00
76108;BME280;64834;52.516;10.528;2024-03-17T06:22:23;101751.72;;;0.93;100.00
76108;BME280;64834;52.516;10.528;2024-03-17T06:24:48;101741.34;;;1.00;100.00
76108;BME280;64834;52.516;10.528;2024-03-17T06:27:14;101743.69;;;1.05;100.00
76108;BME280;64834;52.516;10.528;2024-03-17T06:29:40;101740.63;;;1.17;100.00
76108;BME280;64834;52.516;10.528;2024-03-17T06:32:05;101750.69;;;1.22;100.00
76108;BME280;64834;52.516;10.528;2024-03-17T06:34:30;101743.69;;;1.37;100.00
76108;BME280;64834;52.516;10.528;2024-03-17T06:36:56;101749.25;;;1.49;100.00
76108;BME280;64834;52.516;10.528;2024-03-17T06:39:21;101752.00;;;1.50;100.00
76108;BME280;64834;52.516;10.528;2024-03-17T06:41:47;101743.91;;;1.63;100.00
76108;BME280;64834;52.516;10.528;2024-03-17T06:44:12;101751.91;;;1.73;100.00
76108;BME280;64834;52.516;10.528;2024-03-17T06:46:37;101752.72;;;1.81;100.00
76108;BME280;64834;52.516;10.528;2024-03-17T06:49:03;101753.38;;;1.87;100.00
76108;BME280;64834;52.516;10.528;2024-03-17T06:51:28;101755.13;;;1.95;100.00
76108;BME280;64834;52.516;10.528;2024-03-17T06:53:53;101759.44;;;2.03;100.00
76108;BME280;64834;52.516;10.528;2024-03-17T06:56:19;101748.38;;;2.13;100.00
76108;BME280;64834;52.516;10.528;2024-03-17T06:58:44;101756.09;;;2.29;100.00
76108;BME280;64834;52.516;10.528;2024-03-17T07:01:10;101760.88;;;2.41;100.00
76108;BME280;64834;52.516;10.528;2024-03-17T07:03:38;101761.25;;;2.53;100.00
76108;BME280;64834;52.516;10.528;2024-03-17T07:06:04;101761.78;;;2.66;100.00
76108;BME280;64834;52.516;10.528;2024-03-17T07:08:30;101767.72;;;2.74;100.00
76108;BME280;64834;52.516;10.528;2024-03-17T07:11:05;101754.41;;;2.87;100.00
76108;BME280;64834;52.516;10.528;2024-03-17T07:13:40;101756.25;;;2.96;100.00
76108;BME280;64834;52.516;10.528;2024-03-17T07:16:07;101758.44;;;3.09;100.00
76108;BME280;64834;52.516;10.528;2024-03-17T07:18:33;101755.41;;;3.22;100.00
76108;BME280;64834;52.516;10.528;2024-03-17T07:21:00;101755.91;;;3.35;100.00
76108;BME280;64834;52.516;10.528;2024-03-17T07:23:28;101752.25;;;3.50;100.00
76108;BME280;64834;52.516;10.528;2024-03-17T07:25:57;101751.03;;;3.64;100.00
76108;BME280;64834;52.516;10.528;2024-03-17T07:28:24;101756.22;;;3.82;100.00
76108;BME280;64834;52.516;10.528;2024-03-17T07:30:51;101757.59;;;4.04;100.00
76108;BME280;64834;52.516;10.528;2024-03-17T07:33:18;101754.34;;;4.24;100.00
76108;BME280;64834;52.516;10.528;2024-03-17T07:38:13;101741.28;;;4.67;100.00
76108;BME280;64834;52.516;10.528;2024-03-17T07:40:39;101744.13;;;4.79;100.00
76108;BME280;64834;52.516;10.528;2024-03-17T07:43:04;101742.97;;;4.94;100.00
76108;BME280;64834;52.516;10.528;2024-03-17T07:45:30;101743.94;;;5.13;100.00
76108;BME280;64834;52.516;10.528;2024-03-17T07:47:55;101752.69;;;5.52;100.00
76108;BME280;64834;52.516;10.528;2024-03-17T07:50:21;101751.34;;;5.65;100.00
76108;BME280;64834;52.516;10.528;2024-03-17T07:52:46;101754.44;;;5.80;100.00
76108;BME280;64834;52.516;10.528;2024-03-17T07:55:11;101748.38;;;5.99;100.00
76108;BME280;64834;52.516;10.528;2024-03-17T07:57:38;101747.78;;;6.11;100.00
76108;BME280;64834;52.516;10.528;2024-03-17T08:00:04;101753.53;;;6.17;100.00
76108;BME280;64834;52.516;10.528;2024-03-17T08:02:29;101755.25;;;6.27;100.00
76108;BME280;64834;52.516;10.528;2024-03-17T08:04:55;101741.84;;;6.52;100.00
76108;BME280;64834;52.516;10.528;2024-03-17T08:07:20;101745.41;;;6.62;100.00
76108;BME280;64834;52.516;10.528;2024-03-17T08:09:46;101745.31;;;6.81;100.00
76108;BME280;64834;52.516;10.528;2024-03-17T08:12:11;101747.00;;;6.91;100.00
76108;BME280;64834;52.516;10.528;2024-03-17T08:14:37;101747.66;;;6.88;100.00
76108;BME280;64834;52.516;10.528;2024-03-17T08:17:02;101736.50;;;6.99;100.00
76108;BME280;64834;52.516;10.528;2024-03-17T08:19:27;101741.22;;;7.24;100.00
76108;BME280;64834;52.516;10.528;2024-03-17T08:21:53;101733.41;;;7.44;100.00
76108;BME280;64834;52.516;10.528;2024-03-17T08:24:18;101734.19;;;7.43;99.12
76108;BME280;64834;52.516;10.528;2024-03-17T08:26:44;101739.22;;;6.81;100.00
76108;BME280;64834;52.516;10.528;2024-03-17T08:29:11;101732.47;;;7.03;99.83
76108;BME280;64834;52.516;10.528;2024-03-17T08:31:36;101738.19;;;6.99;100.00
76108;BME280;64834;52.516;10.528;2024-03-17T08:34:02;101734.41;;;6.95;100.00
76108;BME280;64834;52.516;10.528;2024-03-17T08:36:27;101734.19;;;7.13;100.00
76108;BME280;64834;52.516;10.528;2024-03-17T08:38:53;101739.88;;;7.29;99.13
76108;BME280;64834;52.516;10.528;2024-03-17T08:41:20;101738.75;;;7.36;98.56
76108;BME280;64834;52.516;10.528;2024-03-17T08:43:45;101724.69;;;7.44;97.68
76108;BME280;64834;52.516;10.528;2024-03-17T08:46:11;101724.91;;;7.16;98.21
76108;BME280;64834;52.516;10.528;2024-03-17T08:48:39;101730.13;;;7.26;99.33
76108;BME280;64834;52.516;10.528;2024-03-17T08:51:06;101733.53;;;7.36;95.51
76108;BME280;64834;52.516;10.528;2024-03-17T08:53:33;101734.03;;;7.52;95.06
76108;BME280;64834;52.516;10.528;2024-03-17T08:55:59;101732.75;;;7.37;94.01
76108;BME280;64834;52.516;10.528;2024-03-17T08:58:25;101742.00;;;7.43;92.14
76108;BME280;64834;52.516;10.528;2024-03-17T09:00:51;101729.75;;;7.52;87.19
76108;BME280;64834;52.516;10.528;2024-03-17T09:03:17;101739.66;;;7.56;89.58
76108;BME280;64834;52.516;10.528;2024-03-17T09:05:45;101734.16;;;7.64;92.81
76108;BME280;64834;52.516;10.528;2024-03-17T09:08:31;101741.59;;;7.69;88.70
76108;BME280;64834;52.516;10.528;2024-03-17T09:10:57;101732.06;;;7.80;87.23
76108;BME280;64834;52.516;10.528;2024-03-17T09:13:25;101727.88;;;7.92;83.54
76108;BME280;64834;52.516;10.528;2024-03-17T09:15:59;101733.66;;;7.68;80.52
76108;BME280;64834;52.516;10.528;2024-03-17T09:18:25;101724.38;;;7.71;79.05
76108;BME280;64834;52.516;10.528;2024-03-17T09:20:58;101717.09;;;7.67;81.93
76108;BME280;64834;52.516;10.528;2024-03-17T09:23:24;101725.03;;;7.58;83.63
76108;BME280;64834;52.516;10.528;2024-03-17T09:26:03;101720.13;;;8.04;84.38
76108;BME280;64834;52.516;10.528;2024-03-17T09:28:29;101720.69;;;8.00;80.27
76108;BME280;64834;52.516;10.528;2024-03-17T09:30:56;101724.63;;;8.17;81.22
76108;BME280;64834;52.516;10.528;2024-03-17T09:33:22;101725.03;;;8.21;80.08
76108;BME280;64834;52.516;10.528;2024-03-17T09:36:01;101735.16;;;8.38;79.61
76108;BME280;64834;52.516;10.528;2024-03-17T09:38:30;101733.28;;;8.48;78.25
76108;BME280;64834;52.516;10.528;2024-03-17T09:40:56;101730.22;;;8.63;78.52
76108;BME280;64834;52.516;10.528;2024-03-17T09:43:28;101727.47;;;8.84;74.09
76108;BME280;64834;52.516;10.528;2024-03-17T09:45:54;101732.66;;;8.94;73.41
76108;BME280;64834;52.516;10.528;2024-03-17T09:48:23;101731.81;;;9.17;72.22
76108;BME280;64834;52.516;10.528;2024-03-17T09:50:53;101733.38;;;9.37;70.36
76108;BME280;64834;52.516;10.528;2024-03-17T09:53:26;101720.25;;;9.70;69.92
76108;BME280;64834;52.516;10.528;2024-03-17T09:55:56;101716.13;;;9.74;66.16
76108;BME280;64834;52.516;10.528;2024-03-17T09:58:22;101717.06;;;10.10;67.74
76108;BME280;64834;52.516;10.528;2024-03-17T10:00:47;101724.81;;;10.20;65.78
76108;BME280;64834;52.516;10.528;2024-03-17T10:03:45;101721.75;;;10.37;67.99
76108;BME280;64834;52.516;10.528;2024-03-17T10:06:15;101724.56;;;10.52;65.97
76108;BME280;64834;52.516;10.528;2024-03-17T10:08:46;101720.16;;;10.39;62.07
76108;BME280;64834;52.516;10.528;2024-03-17T10:11:13;101724.81;;;10.43;61.07
76108;BME280;64834;52.516;10.528;2024-03-17T10:13:40;101721.38;;;10.09;60.23
76108;BME280;64834;52.516;10.528;2024-03-17T10:16:20;101722.44;;;9.99;62.53
76108;BME280;64834;52.516;10.528;2024-03-17T10:18:46;101722.19;;;10.20;61.21
76108;BME280;64834;52.516;10.528;2024-03-17T10:21:26;101715.25;;;9.97;61.61
76108;BME280;64834;52.516;10.528;2024-03-17T10:24:19;101729.22;;;10.56;61.10
76108;BME280;64834;52.516;10.528;2024-03-17T10:26:53;101727.19;;;10.52;62.42
76108;BME280;64834;52.516;10.528;2024-03-17T10:29:29;101719.81;;;10.83;61.85
76108;BME280;64834;52.516;10.528;2024-03-17T10:32:12;101722.16;;;11.17;60.00
76108;BME280;64834;52.516;10.528;2024-03-17T10:34:39;101721.47;;;11.19;61.08
76108;BME280;64834;52.516;10.528;2024-03-17T10:39:35;101723.69;;;10.40;62.70
76108;BME280;64834;52.516;10.528;2024-03-17T10:42:02;101731.06;;;10.34;62.92
76108;BME280;64834;52.516;10.528;2024-03-17T10:44:28;101731.38;;;9.91;62.17
76108;BME280;64834;52.516;10.528;2024-03-17T10:46:55;101724.97;;;9.53;63.71
76108;BME280;64834;52.516;10.528;2024-03-17T10:49:23;101739.84;;;9.42;64.00
76108;BME280;64834;52.516;10.528;2024-03-17T10:51:53;101731.22;;;9.43;65.79
76108;BME280;64834;52.516;10.528;2024-03-17T10:54:24;101734.34;;;9.27;66.06
76108;BME280;64834;52.516;10.528;2024-03-17T10:57:14;101722.94;;;9.15;66.62
76108;BME280;64834;52.516;10.528;2024-03-17T10:59:47;101726.66;;;9.40;64.65
76108;BME280;64834;52.516;10.528;2024-03-17T11:02:26;101725.44;;;9.47;64.77
76108;BME280;64834;52.516;10.528;2024-03-17T11:05:00;101728.41;;;9.52;64.14
76108;BME280;64834;52.516;10.528;2024-03-17T11:07:26;101735.41;;;9.41;64.87
76108;BME280;64834;52.516;10.528;2024-03-17T11:09:53;101735.03;;;9.36;65.39
76108;BME280;64834;52.516;10.528;2024-03-17T11:12:56;101732.28;;;9.57;66.51
76108;BME280;64834;52.516;10.528;2024-03-17T11:15:42;101731.13;;;9.53;63.13
76108;BME280;64834;52.516;10.528;2024-03-17T11:20:34;101719.38;;;9.93;63.41
76108;BME280;64834;52.516;10.528;2024-03-17T11:23:00;101714.00;;;10.04;62.89
76108;BME280;64834;52.516;10.528;2024-03-17T11:27:55;101707.28;;;10.19;60.39
76108;BME280;64834;52.516;10.528;2024-03-17T11:38:58;101688.53;;;9.89;60.79
76108;BME280;64834;52.516;10.528;2024-03-17T11:47:05;101704.28;;;10.49;62.72
76108;BME280;64834;52.516;10.528;2024-03-17T11:49:39;101700.09;;;10.88;57.82
76108;BME280;64834;52.516;10.528;2024-03-17T11:52:15;101702.91;;;10.91;57.88
76108;BME280;64834;52.516;10.528;2024-03-17T11:54:43;101704.66;;;10.79;56.64
76108;BME280;64834;52.516;10.528;2024-03-17T11:57:14;101695.28;;;10.94;58.52
76108;BME280;64834;52.516;10.528;2024-03-17T11:59:44;101699.13;;;10.99;55.36
76108;BME280;64834;52.516;10.528;2024-03-17T12:02:22;101700.34;;;11.04;56.51
76108;BME280;64834;52.516;10.528;2024-03-17T12:04:52;101695.41;;;10.96;55.31
76108;BME280;64834;52.516;10.528;2024-03-17T12:07:19;101691.44;;;10.89;54.76
76108;BME280;64834;52.516;10.528;2024-03-17T12:09:46;101683.97;;;10.82;55.81
76108;BME280;64834;52.516;10.528;2024-03-17T12:12:23;101674.63;;;10.74;54.17
76108;BME280;64834;52.516;10.528;2024-03-17T12:14:50;101674.44;;;10.71;56.13
76108;BME280;64834;52.516;10.528;2024-03-17T12:17:23;101664.44;;;11.15;54.90
76108;BME280;64834;52.516;10.528;2024-03-17T12:19:49;101669.50;;;11.25;53.68
76108;BME280;64834;52.516;10.528;2024-03-17T12:22:23;101664.63;;;11.18;53.10
76108;BME280;64834;52.516;10.528;2024-03-17T12:24:54;101661.84;;;11.28;53.16
76108;BME280;64834;52.516;10.528;2024-03-17T12:27:22;101662.22;;;11.21;54.56
76108;BME280;64834;52.516;10.528;2024-03-17T12:29:48;101656.16;;;10.84;54.09
76108;BME280;64834;52.516;10.528;2024-03-17T12:32:16;101652.13;;;11.14;55.21
76108;BME280;64834;52.516;10.528;2024-03-17T12:34:49;101645.25;;;11.03;52.27
76108;BME280;64834;52.516;10.528;2024-03-17T12:37:24;101639.69;;;10.98;52.93
76108;BME280;64834;52.516;10.528;2024-03-17T12:39:59;101637.78;;;10.96;54.58
76108;BME280;64834;52.516;10.528;2024-03-17T12:42:26;101635.50;;;11.14;53.22
76108;BME280;64834;52.516;10.528;2024-03-17T12:44:53;101635.72;;;11.17;53.31
76108;BME280;64834;52.516;10.528;2024-03-17T12:47:21;101628.31;;;10.98;52.29
76108;BME280;64834;52.516;10.528;2024-03-17T12:49:49;101632.16;;;11.03;52.95
76108;BME280;64834;52.516;10.528;2024-03-17T12:52:27;101622.81;;;11.06;51.85
76108;BME280;64834;52.516;10.528;2024-03-17T12:55:17;101623.75;;;10.82;52.47
76108;BME280;64834;52.516;10.528;2024-03-17T13:01:06;101622.72;;;11.18;53.04
76108;BME280;64834;52.516;10.528;2024-03-17T13:03:32;101616.72;;;11.32;53.36
76108;BME280;64834;52.516;10.528;2024-03-17T13:06:02;101610.47;;;11.57;53.83
76108;BME280;64834;52.516;10.528;2024-03-17T13:08:29;101615.00;;;11.59;52.16
76108;BME280;64834;52.516;10.528;2024-03-17T13:10:57;101609.94;;;11.36;50.52